首页
METAR-TAF:

METAR-TAF

机场 :

鲁昂, 法国

纬度: 49-23N, 经度: 001-11E, 海拔: 157米

当前天气观测

该预报发布于16分钟前的03:00 UTC
风速10节,风向西南
温度 4°C
湿度 93%
气压 992 hPa
能见度10公里或以上
多云层高于1200英尺
多云层高于1700英尺
多云层高于6800英尺

METAR: LFOP 140300Z AUTO 22010KT 9999 BKN012 BKN017 BKN068 04/03 Q0992 NOSIG

时间: 04:16 (03:16 UTC)

预报

该预报发布于10小时和16分钟前的17:00 UTC
预报有效从13日的 18点(UTC)到 14日的 18点(UTC)
风速12节,风向
能见度10公里或以上
1500米以下无云,无积雨云
成为
从 13日的 20点(UTC)到 13日的 22点(UTC)
多云层高于1300英尺
短暂存在
从 13日的 22点(UTC)到 14日的 02点(UTC)
风速15节,风向东南
能見度: 3000
阴天层高于600英尺
成为
从 14日的 10点(UTC)到 14日的 12点(UTC)
多云层高于2000英尺
成为
从 14日的 15点(UTC)到 14日的 18点(UTC)
风速2节,风向多变

TAF: LFOP 131700Z 1318/1418 19012KT CAVOK BECMG 1320/1322 BKN013 TEMPO 1322/1402 13015KT 3000 RA OVC006 BECMG 1410/1412 BKN020 BECMG 1415/1418 VRB02KT

超过4000个机场的气象观测和天气预报(METAR&TAF报告)。

可查询的气象台以黄色和红色小点在地图上表示。

将鼠标移到小点上方,可查看气象台名称。

然后点击查看天气观测和预报。

如需切换地图:点击带黑十字的绿色按钮放大地图;点击带横线的绿色按钮缩小地图;或者点击绿色箭头查看邻近地区的地图。


METAR-TAF: